sensor_id;sensor_type;location;lat;lon;timestamp;temperature;humidity
5007;DHT22;2522;50.972;11.046;2022-10-04T03:30:42;10.20;99.90
5007;DHT22;2522;50.972;11.046;2022-10-04T03:33:16;10.20;99.90
5007;DHT22;2522;50.972;11.046;2022-10-04T03:35:46;10.30;99.90
5007;DHT22;2522;50.972;11.046;2022-10-04T03:38:15;10.30;99.90
5007;DHT22;2522;50.972;11.046;2022-10-04T03:40:50;10.30;99.90
5007;DHT22;2522;50.972;11.046;2022-10-04T03:43:23;10.30;99.90
5007;DHT22;2522;50.972;11.046;2022-10-04T03:45:52;10.30;99.90
5007;DHT22;2522;50.972;11.046;2022-10-04T03:48:30;10.30;99.90
5007;DHT22;2522;50.972;11.046;2022-10-04T03:50:57;10.30;99.90
5007;DHT22;2522;50.972;11.046;2022-10-04T03:53:34;10.30;99.90
5007;DHT22;2522;50.972;11.046;2022-10-04T03:56:09;10.30;99.90
5007;DHT22;2522;50.972;11.046;2022-10-04T03:58:37;10.30;99.90
5007;DHT22;2522;50.972;11.046;2022-10-04T04:01:12;10.30;99.90
5007;DHT22;2522;50.972;11.046;2022-10-04T04:03:49;10.30;99.90
5007;DHT22;2522;50.972;11.046;2022-10-04T04:06:20;10.30;99.90
5007;DHT22;2522;50.972;11.046;2022-10-04T04:08:51;10.30;99.90
5007;DHT22;2522;50.972;11.046;2022-10-04T04:11:22;10.20;99.90
5007;DHT22;2522;50.972;11.046;2022-10-04T04:13:55;10.20;99.90
5007;DHT22;2522;50.972;11.046;2022-10-04T04:16:25;10.20;99.90
5007;DHT22;2522;50.972;11.046;2022-10-04T04:18:54;10.20;99.90
5007;DHT22;2522;50.972;11.046;2022-10-04T04:21:24;10.20;99.90
5007;DHT22;2522;50.972;11.046;2022-10-04T04:23:57;10.20;99.90
5007;DHT22;2522;50.972;11.046;2022-10-04T04:26:28;10.20;99.90
5007;DHT22;2522;50.972;11.046;2022-10-04T04:29:03;10.20;99.90
5007;DHT22;2522;50.972;11.046;2022-10-04T04:31:37;10.30;99.90
5007;DHT22;2522;50.972;11.046;2022-10-04T04:34:16;10.30;99.90
5007;DHT22;2522;50.972;11.046;2022-10-04T04:36:44;10.30;99.90
5007;DHT22;2522;50.972;11.046;2022-10-04T04:39:15;10.30;99.90
5007;DHT22;2522;50.972;11.046;2022-10-04T04:42:05;10.30;99.90
5007;DHT22;2522;50.972;11.046;2022-10-04T04:44:35;10.30;99.90
5007;DHT22;2522;50.972;11.046;2022-10-04T04:47:08;10.30;99.90
5007;DHT22;2522;50.972;11.046;2022-10-04T04:49:38;10.30;99.90
5007;DHT22;2522;50.972;11.046;2022-10-04T04:52:14;10.30;99.90
5007;DHT22;2522;50.972;11.046;2022-10-04T04:54:42;10.30;99.90
5007;DHT22;2522;50.972;11.046;2022-10-04T04:57:14;10.30;99.90
5007;DHT22;2522;50.972;11.046;2022-10-04T04:59:44;10.30;99.90
5007;DHT22;2522;50.972;11.046;2022-10-04T05:02:29;10.30;99.90
5007;DHT22;2522;50.972;11.046;2022-10-04T05:05:16;10.30;99.90
5007;DHT22;2522;50.972;11.046;2022-10-04T05:07:43;10.30;99.90
5007;DHT22;2522;50.972;11.046;2022-10-04T05:10:21;10.30;99.90
5007;DHT22;2522;50.972;11.046;2022-10-04T05:12:53;10.30;99.90
5007;DHT22;2522;50.972;11.046;2022-10-04T05:15:21;10.30;99.90
5007;DHT22;2522;50.972;11.046;2022-10-04T05:17:49;10.30;99.90
5007;DHT22;2522;50.972;11.046;2022-10-04T05:20:17;10.40;99.90
5007;DHT22;2522;50.972;11.046;2022-10-04T05:22:46;10.40;99.90
5007;DHT22;2522;50.972;11.046;2022-10-04T05:25:21;10.40;99.90
5007;DHT22;2522;50.972;11.046;2022-10-04T05:27:49;10.50;99.90
5007;DHT22;2522;50.972;11.046;2022-10-04T05:30:36;10.40;99.90
5007;DHT22;2522;50.972;11.046;2022-10-04T05:33:12;10.40;99.90
5007;DHT22;2522;50.972;11.046;2022-10-04T05:35:56;10.40;99.90
5007;DHT22;2522;50.972;11.046;2022-10-04T05:38:31;10.40;99.90
5007;DHT22;2522;50.972;11.046;2022-10-04T05:41:07;10.40;99.90
5007;DHT22;2522;50.972;11.046;2022-10-04T05:43:37;10.50;99.90
5007;DHT22;2522;50.972;11.046;2022-10-04T05:46:17;10.50;99.90
5007;DHT22;2522;50.972;11.046;2022-10-04T05:48:51;10.50;99.90
5007;DHT22;2522;50.972;11.046;2022-10-04T05:51:21;10.50;99.90
5007;DHT22;2522;50.972;11.046;2022-10-04T05:53:49;10.60;99.90
5007;DHT22;2522;50.972;11.046;2022-10-04T05:56:30;10.50;99.90
5007;DHT22;2522;50.972;11.046;2022-10-04T05:59:10;10.60;99.90
5007;DHT22;2522;50.972;11.046;2022-10-04T06:01:47;10.60;99.90
5007;DHT22;2522;50.972;11.046;2022-10-04T06:04:31;10.60;99.90
5007;DHT22;2522;50.972;11.046;2022-10-04T06:07:06;10.60;99.90
5007;DHT22;2522;50.972;11.046;2022-10-04T06:09:51;10.60;99.90
5007;DHT22;2522;50.972;11.046;2022-10-04T06:12:29;10.60;99.90
5007;DHT22;2522;50.972;11.046;2022-10-04T06:15:30;10.70;99.90
5007;DHT22;2522;50.972;11.046;2022-10-04T06:18:21;10.70;99.90
5007;DHT22;2522;50.972;11.046;2022-10-04T06:23:46;10.80;99.90
5007;DHT22;2522;50.972;11.046;2022-10-04T06:26:19;10.80;99.90
5007;DHT22;2522;50.972;11.046;2022-10-04T06:28:51;10.90;99.90
5007;DHT22;2522;50.972;11.046;2022-10-04T06:34:49;11.00;99.90
5007;DHT22;2522;50.972;11.046;2022-10-04T06:37:43;11.00;99.90
5007;DHT22;2522;50.972;11.046;2022-10-04T06:40:40;11.00;99.90
5007;DHT22;2522;50.972;11.046;2022-10-04T06:43:28;11.10;99.90
5007;DHT22;2522;50.972;11.046;2022-10-04T06:46:05;11.10;99.90
5007;DHT22;2522;50.972;11.046;2022-10-04T06:48:59;11.20;99.90
5007;DHT22;2522;50.972;11.046;2022-10-04T06:51:41;11.20;99.90
5007;DHT22;2522;50.972;11.046;2022-10-04T06:54:35;11.20;99.90
5007;DHT22;2522;50.972;11.046;2022-10-04T07:00:16;11.30;99.90
5007;DHT22;2522;50.972;11.046;2022-10-04T07:02:48;11.40;99.90
5007;DHT22;2522;50.972;11.046;2022-10-04T07:05:22;11.40;99.90
5007;DHT22;2522;50.972;11.046;2022-10-04T07:08:03;11.50;99.90
5007;DHT22;2522;50.972;11.046;2022-10-04T07:10:37;11.50;99.90
5007;DHT22;2522;50.972;11.046;2022-10-04T07:13:14;11.60;99.90
5007;DHT22;2522;50.972;11.046;2022-10-04T07:15:47;11.70;99.90
5007;DHT22;2522;50.972;11.046;2022-10-04T07:18:23;11.80;99.90
5007;DHT22;2522;50.972;11.046;2022-10-04T07:20:58;11.90;99.90
5007;DHT22;2522;50.972;11.046;2022-10-04T07:23:30;11.90;99.90
5007;DHT22;2522;50.972;11.046;2022-10-04T07:26:02;12.00;99.90
5007;DHT22;2522;50.972;11.046;2022-10-04T07:28:33;12.10;99.90
5007;DHT22;2522;50.972;11.046;2022-10-04T07:31:24;12.10;99.90
5007;DHT22;2522;50.972;11.046;2022-10-04T07:33:55;12.20;99.90
5007;DHT22;2522;50.972;11.046;2022-10-04T07:36:27;12.30;99.90
5007;DHT22;2522;50.972;11.046;2022-10-04T07:38:56;12.40;99.90
5007;DHT22;2522;50.972;11.046;2022-10-04T07:41:28;12.50;99.90
5007;DHT22;2522;50.972;11.046;2022-10-04T07:44:00;12.60;99.90
5007;DHT22;2522;50.972;11.046;2022-10-04T07:46:42;12.60;99.90
5007;DHT22;2522;50.972;11.046;2022-10-04T07:49:13;12.70;99.90
5007;DHT22;2522;50.972;11.046;2022-10-04T07:51:49;12.80;99.90
5007;DHT22;2522;50.972;11.046;2022-10-04T07:54:21;12.90;99.90
5007;DHT22;2522;50.972;11.046;2022-10-04T07:56:56;13.00;99.90
5007;DHT22;2522;50.972;11.046;2022-10-04T07:59:34;13.10;99.90
5007;DHT22;2522;50.972;11.046;2022-10-04T08:02:17;13.20;99.90
5007;DHT22;2522;50.972;11.046;2022-10-04T08:04:53;13.20;99.90
5007;DHT22;2522;50.972;11.046;2022-10-04T08:07:25;13.30;99.90
5007;DHT22;2522;50.972;11.046;2022-10-04T08:09:59;13.40;99.90
5007;DHT22;2522;50.972;11.046;2022-10-04T08:12:38;13.40;99.90
5007;DHT22;2522;50.972;11.046;2022-10-04T08:15:28;13.50;99.90
5007;DHT22;2522;50.972;11.046;2022-10-04T08:18:03;13.60;99.90
5007;DHT22;2522;50.972;11.046;2022-10-04T08:20:39;13.70;99.90
5007;DHT22;2522;50.972;11.046;2022-10-04T08:23:33;13.80;99.90
5007;DHT22;2522;50.972;11.046;2022-10-04T08:26:11;13.90;99.90
5007;DHT22;2522;50.972;11.046;2022-10-04T08:28:48;14.00;99.90
5007;DHT22;2522;50.972;11.046;2022-10-04T08:31:41;14.10;99.90
5007;DHT22;2522;50.972;11.046;2022-10-04T08:34:27;14.20;99.90
5007;DHT22;2522;50.972;11.046;2022-10-04T08:37:04;14.30;99.90
5007;DHT22;2522;50.972;11.046;2022-10-04T08:39:51;14.30;99.90
5007;DHT22;2522;50.972;11.046;2022-10-04T08:42:47;14.40;99.90
5007;DHT22;2522;50.972;11.046;2022-10-04T08:45:58;14.50;99.90
5007;DHT22;2522;50.972;11.046;2022-10-04T08:48:59;14.50;99.90
5007;DHT22;2522;50.972;11.046;2022-10-04T08:55:02;14.60;99.90
5007;DHT22;2522;50.972;11.046;2022-10-04T09:00:47;14.90;99.90
5007;DHT22;2522;50.972;11.046;2022-10-04T09:06:22;15.20;99.90
5007;DHT22;2522;50.972;11.046;2022-10-04T09:12:11;15.40;99.90
5007;DHT22;2522;50.972;11.046;2022-10-04T09:14:59;15.40;99.90
5007;DHT22;2522;50.972;11.046;2022-10-04T09:17:37;15.50;99.90
5007;DHT22;2522;50.972;11.046;2022-10-04T09:20:20;15.50;99.90
5007;DHT22;2522;50.972;11.046;2022-10-04T09:22:54;15.60;99.90
5007;DHT22;2522;50.972;11.046;2022-10-04T09:28:52;15.60;99.90
5007;DHT22;2522;50.972;11.046;2022-10-04T09:34:58;15.80;99.90
5007;DHT22;2522;50.972;11.046;2022-10-04T09:38:06;15.90;99.90
5007;DHT22;2522;50.972;11.046;2022-10-04T09:40:53;15.90;99.90
5007;DHT22;2522;50.972;11.046;2022-10-04T09:44:02;15.90;99.90
5007;DHT22;2522;50.972;11.046;2022-10-04T09:46:54;15.90;99.90
5007;DHT22;2522;50.972;11.046;2022-10-04T09:52:35;16.00;99.90
5007;DHT22;2522;50.972;11.046;2022-10-04T09:55:33;16.00;99.90
5007;DHT22;2522;50.972;11.046;2022-10-04T09:58:33;16.00;99.90
5007;DHT22;2522;50.972;11.046;2022-10-04T10:01:11;16.00;99.90
5007;DHT22;2522;50.972;11.046;2022-10-04T10:06:44;16.10;99.90
5007;DHT22;2522;50.972;11.046;2022-10-04T10:09:21;16.10;99.90
5007;DHT22;2522;50.972;11.046;2022-10-04T10:12:27;16.20;99.90
5007;DHT22;2522;50.972;11.046;2022-10-04T10:15:23;16.20;99.90
5007;DHT22;2522;50.972;11.046;2022-10-04T10:17:57;16.30;99.90
5007;DHT22;2522;50.972;11.046;2022-10-04T10:23:59;16.40;99.90
5007;DHT22;2522;50.972;11.046;2022-10-04T10:26:53;16.40;99.90
5007;DHT22;2522;50.972;11.046;2022-10-04T10:29:59;16.40;99.90
5007;DHT22;2522;50.972;11.046;2022-10-04T10:35:30;16.60;99.90
5007;DHT22;2522;50.972;11.046;2022-10-04T10:38:22;16.70;99.90
5007;DHT22;2522;50.972;11.046;2022-10-04T10:41:06;16.80;99.90
5007;DHT22;2522;50.972;11.046;2022-10-04T10:43:48;16.80;99.90
5007;DHT22;2522;50.972;11.046;2022-10-04T10:46:44;16.90;99.90
5007;DHT22;2522;50.972;11.046;2022-10-04T10:49:30;16.90;99.90
5007;DHT22;2522;50.972;11.046;2022-10-04T10:52:26;17.00;99.90
5007;DHT22;2522;50.972;11.046;2022-10-04T10:55:20;17.00;99.90
5007;DHT22;2522;50.972;11.046;2022-10-04T10:58:13;17.00;99.90
5007;DHT22;2522;50.972;11.046;2022-10-04T11:00:59;17.10;99.90
5007;DHT22;2522;50.972;11.046;2022-10-04T11:04:00;17.10;99.90
5007;DHT22;2522;50.972;11.046;2022-10-04T11:06:57;17.10;99.90
5007;DHT22;2522;50.972;11.046;2022-10-04T11:09:31;17.20;99.90
5007;DHT22;2522;50.972;11.046;2022-10-04T11:12:43;17.20;99.90
5007;DHT22;2522;50.972;11.046;2022-10-04T11:15:39;17.30;99.90
5007;DHT22;2522;50.972;11.046;2022-10-04T11:21:44;17.40;99.90
5007;DHT22;2522;50.972;11.046;2022-10-04T11:24:45;17.40;99.90
5007;DHT22;2522;50.972;11.046;2022-10-04T11:27:27;17.40;99.90
5007;DHT22;2522;50.972;11.046;2022-10-04T11:30:16;17.50;99.90
5007;DHT22;2522;50.972;11.046;2022-10-04T11:33:21;17.50;99.90
5007;DHT22;2522;50.972;11.046;2022-10-04T11:36:10;17.50;99.90
5007;DHT22;2522;50.972;11.046;2022-10-04T11:38:51;17.50;99.90
5007;DHT22;2522;50.972;11.046;2022-10-04T11:41:28;17.50;99.90
5007;DHT22;2522;50.972;11.046;2022-10-04T11:47:10;17.60;99.90
5007;DHT22;2522;50.972;11.046;2022-10-04T11:49:54;17.70;99.90
5007;DHT22;2522;50.972;11.046;2022-10-04T11:53:03;17.70;99.90
5007;DHT22;2522;50.972;11.046;2022-10-04T11:58:49;17.80;99.90
5007;DHT22;2522;50.972;11.046;2022-10-04T12:07:32;17.90;99.90
5007;DHT22;2522;50.972;11.046;2022-10-04T12:10:22;18.00;99.90
5007;DHT22;2522;50.972;11.046;2022-10-04T12:16:28;18.10;99.90
5007;DHT22;2522;50.972;11.046;2022-10-04T12:22:25;18.10;99.90
5007;DHT22;2522;50.972;11.046;2022-10-04T12:25:13;18.20;99.90
5007;DHT22;2522;50.972;11.046;2022-10-04T12:28:13;18.20;99.90
5007;DHT22;2522;50.972;11.046;2022-10-04T12:33:46;18.20;99.90
5007;DHT22;2522;50.972;11.046;2022-10-04T12:36:36;18.20;99.90
5007;DHT22;2522;50.972;11.046;2022-10-04T12:39:18;18.30;99.90
5007;DHT22;2522;50.972;11.046;2022-10-04T12:41:54;18.30;99.90
5007;DHT22;2522;50.972;11.046;2022-10-04T12:44:35;18.30;99.90
5007;DHT22;2522;50.972;11.046;2022-10-04T12:50:34;18.40;99.90
5007;DHT22;2522;50.972;11.046;2022-10-04T12:53:16;18.40;99.90
5007;DHT22;2522;50.972;11.046;2022-10-04T12:56:05;18.40;99.90
5007;DHT22;2522;50.972;11.046;2022-10-04T12:58:45;18.40;99.90
5007;DHT22;2522;50.972;11.046;2022-10-04T13:01:24;18.40;99.90
5007;DHT22;2522;50.972;11.046;2022-10-04T13:04:08;18.40;99.90
5007;DHT22;2522;50.972;11.046;2022-10-04T13:06:49;18.50;99.90
5007;DHT22;2522;50.972;11.046;2022-10-04T13:09:22;18.50;99.90
5007;DHT22;2522;50.972;11.046;2022-10-04T13:12:07;18.60;99.90
5007;DHT22;2522;50.972;11.046;2022-10-04T13:14:55;18.60;99.90
5007;DHT22;2522;50.972;11.046;2022-10-04T13:17:36;18.70;99.90
5007;DHT22;2522;50.972;11.046;2022-10-04T13:20:23;18.70;99.90
5007;DHT22;2522;50.972;11.046;2022-10-04T13:22:57;18.70;99.90
5007;DHT22;2522;50.972;11.046;2022-10-04T13:25:54;18.70;99.90
5007;DHT22;2522;50.972;11.046;2022-10-04T13:28:24;18.70;99.90
5007;DHT22;2522;50.972;11.046;2022-10-04T13:31:00;18.70;99.90
5007;DHT22;2522;50.972;11.046;2022-10-04T13:33:38;18.70;99.90
5007;DHT22;2522;50.972;11.046;2022-10-04T13:36:10;18.70;99.90
5007;DHT22;2522;50.972;11.046;2022-10-04T13:39:01;18.70;99.90
5007;DHT22;2522;50.972;11.046;2022-10-04T13:41:45;18.70;99.90
5007;DHT22;2522;50.972;11.046;2022-10-04T13:44:32;18.60;99.90
5007;DHT22;2522;50.972;11.046;2022-10-04T13:47:22;18.60;99.90
5007;DHT22;2522;50.972;11.046;2022-10-04T13:50:03;18.60;99.90
5007;DHT22;2522;50.972;11.046;2022-10-04T13:52:41;18.60;99.90
5007;DHT22;2522;50.972;11.046;2022-10-04T13:55:34;18.60;99.90
5007;DHT22;2522;50.972;11.046;2022-10-04T13:58:30;18.50;99.90
5007;DHT22;2522;50.972;11.046;2022-10-04T14:04:00;18.50;99.90
5007;DHT22;2522;50.972;11.046;2022-10-04T14:06:45;18.50;99.90
5007;DHT22;2522;50.972;11.046;2022-10-04T14:09:39;18.50;99.90
5007;DHT22;2522;50.972;11.046;2022-10-04T14:12:38;18.50;99.90
5007;DHT22;2522;50.972;11.046;2022-10-04T14:27:55;18.40;99.90
5007;DHT22;2522;50.972;11.046;2022-10-04T14:30:34;18.40;99.90
5007;DHT22;2522;50.972;11.046;2022-10-04T14:33:30;18.40;99.90
5007;DHT22;2522;50.972;11.046;2022-10-04T14:36:19;18.40;99.90
5007;DHT22;2522;50.972;11.046;2022-10-04T14:39:06;18.40;99.90
5007;DHT22;2522;50.972;11.046;2022-10-04T14:42:11;18.30;99.90
5007;DHT22;2522;50.972;11.046;2022-10-04T14:44:55;18.30;99.90
5007;DHT22;2522;50.972;11.046;2022-10-04T14:51:03;18.20;99.90
5007;DHT22;2522;50.972;11.046;2022-10-04T14:53:38;18.20;99.90
5007;DHT22;2522;50.972;11.046;2022-10-04T14:59:18;18.10;99.90
5007;DHT22;2522;50.972;11.046;2022-10-04T15:02:08;18.10;99.90
5007;DHT22;2522;50.972;11.046;2022-10-04T15:05:02;18.00;99.90
5007;DHT22;2522;50.972;11.046;2022-10-04T15:07:34;18.00;99.90
5007;DHT22;2522;50.972;11.046;2022-10-04T15:10:09;17.90;99.90
5007;DHT22;2522;50.972;11.046;2022-10-04T15:12:45;17.90;99.90
5007;DHT22;2522;50.972;11.046;2022-10-04T15:15:29;17.90;99.90
5007;DHT22;2522;50.972;11.046;2022-10-04T15:18:03;17.80;99.90
5007;DHT22;2522;50.972;11.046;2022-10-04T15:20:45;17.80;99.90
5007;DHT22;2522;50.972;11.046;2022-10-04T15:23:15;17.70;99.90
5007;DHT22;2522;50.972;11.046;2022-10-04T15:25:46;17.70;99.90
5007;DHT22;2522;50.972;11.046;2022-10-04T15:28:32;17.70;99.90
5007;DHT22;2522;50.972;11.046;2022-10-04T15:31:07;17.60;99.90
5007;DHT22;2522;50.972;11.046;2022-10-04T15:33:52;17.60;99.90
5007;DHT22;2522;50.972;11.046;2022-10-04T15:36:41;17.60;99.90
5007;DHT22;2522;50.972;11.046;2022-10-04T15:39:33;17.50;99.90
5007;DHT22;2522;50.972;11.046;2022-10-04T15:42:09;17.50;99.90
5007;DHT22;2522;50.972;11.046;2022-10-04T15:45:03;17.40;99.90
5007;DHT22;2522;50.972;11.046;2022-10-04T15:47:53;17.30;99.90
5007;DHT22;2522;50.972;11.046;2022-10-04T15:50:29;17.30;99.90
5007;DHT22;2522;50.972;11.046;2022-10-04T15:53:11;17.20;99.90
5007;DHT22;2522;50.972;11.046;2022-10-04T15:56:09;17.20;99.90
5007;DHT22;2522;50.972;11.046;2022-10-04T15:59:05;17.10;99.90
5007;DHT22;2522;50.972;11.046;2022-10-04T16:01:48;17.00;99.90
5007;DHT22;2522;50.972;11.046;2022-10-04T16:04:40;16.90;99.90
5007;DHT22;2522;50.972;11.046;2022-10-04T16:07:30;16.90;99.90
5007;DHT22;2522;50.972;11.046;2022-10-04T16:10:13;16.80;99.90
5007;DHT22;2522;50.972;11.046;2022-10-04T16:13:04;16.70;99.90
5007;DHT22;2522;50.972;11.046;2022-10-04T16:15:39;16.70;99.90
5007;DHT22;2522;50.972;11.046;2022-10-04T16:18:34;16.60;99.90
5007;DHT22;2522;50.972;11.046;2022-10-04T16:21:13;16.50;99.90
5007;DHT22;2522;50.972;11.046;2022-10-04T16:23:45;16.50;99.90
5007;DHT22;2522;50.972;11.046;2022-10-04T16:27:02;16.40;99.90
5007;DHT22;2522;50.972;11.046;2022-10-04T16:29:13;16.30;99.90
5007;DHT22;2522;50.972;11.046;2022-10-04T16:31:52;16.20;99.90
5007;DHT22;2522;50.972;11.046;2022-10-04T16:34:43;16.20;99.90
5007;DHT22;2522;50.972;11.046;2022-10-04T16:37:16;16.10;99.90
5007;DHT22;2522;50.972;11.046;2022-10-04T16:39:57;16.00;99.90
5007;DHT22;2522;50.972;11.046;2022-10-04T16:42:30;16.00;99.90
5007;DHT22;2522;50.972;11.046;2022-10-04T16:45:29;15.90;99.90
5007;DHT22;2522;50.972;11.046;2022-10-04T16:48:01;15.80;99.90
5007;DHT22;2522;50.972;11.046;2022-10-04T16:50:51;15.70;99.90
5007;DHT22;2522;50.972;11.046;2022-10-04T16:53:28;15.70;99.90
5007;DHT22;2522;50.972;11.046;2022-10-04T16:56:09;15.60;99.90
5007;DHT22;2522;50.972;11.046;2022-10-04T16:58:50;15.50;99.90
5007;DHT22;2522;50.972;11.046;2022-10-04T17:04:44;15.40;99.90
5007;DHT22;2522;50.972;11.046;2022-10-04T17:07:26;15.30;99.90
5007;DHT22;2522;50.972;11.046;2022-10-04T17:10:05;15.20;99.90
5007;DHT22;2522;50.972;11.046;2022-10-04T17:12:49;15.10;99.90
5007;DHT22;2522;50.972;11.046;2022-10-04T17:15:24;15.00;99.90
5007;DHT22;2522;50.972;11.046;2022-10-04T17:18:01;15.00;99.90
5007;DHT22;2522;50.972;11.046;2022-10-04T17:20:46;14.90;99.90
5007;DHT22;2522;50.972;11.046;2022-10-04T17:26:18;14.70;99.90
5007;DHT22;2522;50.972;11.046;2022-10-04T17:28:55;14.60;99.90
5007;DHT22;2522;50.972;11.046;2022-10-04T17:31:27;14.60;99.90
5007;DHT22;2522;50.972;11.046;2022-10-04T17:34:07;14.50;99.90
5007;DHT22;2522;50.972;11.046;2022-10-04T17:36:40;14.50;99.90
5007;DHT22;2522;50.972;11.046;2022-10-04T17:39:27;14.40;99.90
5007;DHT22;2522;50.972;11.046;2022-10-04T17:42:22;14.40;99.90
5007;DHT22;2522;50.972;11.046;2022-10-04T17:45:19;14.30;99.90
5007;DHT22;2522;50.972;11.046;2022-10-04T17:47:56;14.30;99.90
5007;DHT22;2522;50.972;11.046;2022-10-04T17:50:48;14.20;99.90
5007;DHT22;2522;50.972;11.046;2022-10-04T17:53:36;14.10;99.90
5007;DHT22;2522;50.972;11.046;2022-10-04T17:56:28;14.00;99.90
5007;DHT22;2522;50.972;11.046;2022-10-04T17:58:57;13.90;99.90
5007;DHT22;2522;50.972;11.046;2022-10-04T18:01:30;13.90;99.90
5007;DHT22;2522;50.972;11.046;2022-10-04T18:04:07;13.90;99.90
5007;DHT22;2522;50.972;11.046;2022-10-04T18:06:38;13.80;99.90
5007;DHT22;2522;50.972;11.046;2022-10-04T18:09:17;13.80;99.90
5007;DHT22;2522;50.972;11.046;2022-10-04T18:11:48;13.70;99.90
5007;DHT22;2522;50.972;11.046;2022-10-04T18:17:07;13.60;99.90
5007;DHT22;2522;50.972;11.046;2022-10-04T18:19:43;13.60;99.90
5007;DHT22;2522;50.972;11.046;2022-10-04T18:22:18;13.60;99.90
5007;DHT22;2522;50.972;11.046;2022-10-04T18:24:46;13.60;99.90
5007;DHT22;2522;50.972;11.046;2022-10-04T18:27:17;13.50;99.90
5007;DHT22;2522;50.972;11.046;2022-10-04T18:29:56;13.50;99.90
5007;DHT22;2522;50.972;11.046;2022-10-04T18:32:33;13.50;99.90
5007;DHT22;2522;50.972;11.046;2022-10-04T18:35:16;13.50;99.90
5007;DHT22;2522;50.972;11.046;2022-10-04T18:37:46;13.40;99.90
5007;DHT22;2522;50.972;11.046;2022-10-04T18:40:17;13.40;99.90
5007;DHT22;2522;50.972;11.046;2022-10-04T18:42:50;13.40;99.90
5007;DHT22;2522;50.972;11.046;2022-10-04T18:45:20;13.40;99.90
5007;DHT22;2522;50.972;11.046;2022-10-04T18:47:50;13.30;99.90
5007;DHT22;2522;50.972;11.046;2022-10-04T18:50:27;13.30;99.90
5007;DHT22;2522;50.972;11.046;2022-10-04T18:53:28;13.30;99.90
5007;DHT22;2522;50.972;11.046;2022-10-04T18:56:03;13.30;99.90
5007;DHT22;2522;50.972;11.046;2022-10-04T18:58:54;13.20;99.90
5007;DHT22;2522;50.972;11.046;2022-10-04T19:01:51;13.20;99.90
5007;DHT22;2522;50.972;11.046;2022-10-04T19:04:43;13.20;99.90
5007;DHT22;2522;50.972;11.046;2022-10-04T19:07:13;13.20;99.90
5007;DHT22;2522;50.972;11.046;2022-10-04T19:10:05;13.20;99.90
5007;DHT22;2522;50.972;11.046;2022-10-04T19:12:41;13.10;99.90
5007;DHT22;2522;50.972;11.046;2022-10-04T19:15:23;13.00;99.90
5007;DHT22;2522;50.972;11.046;2022-10-04T19:18:01;13.00;99.90
5007;DHT22;2522;50.972;11.046;2022-10-04T19:20:37;13.00;99.90
5007;DHT22;2522;50.972;11.046;2022-10-04T19:23:16;12.90;99.90
5007;DHT22;2522;50.972;11.046;2022-10-04T19:25:49;12.90;99.90
5007;DHT22;2522;50.972;11.046;2022-10-04T19:28:20;12.90;99.90
5007;DHT22;2522;50.972;11.046;2022-10-04T19:30:59;12.90;99.90
5007;DHT22;2522;50.972;11.046;2022-10-04T19:33:36;12.90;99.90
5007;DHT22;2522;50.972;11.046;2022-10-04T19:36:17;12.90;99.90
5007;DHT22;2522;50.972;11.046;2022-10-04T19:38:54;12.80;99.90
5007;DHT22;2522;50.972;11.046;2022-10-04T19:41:33;12.80;99.90
5007;DHT22;2522;50.972;11.046;2022-10-04T19:44:12;12.80;99.90
5007;DHT22;2522;50.972;11.046;2022-10-04T19:46:47;12.80;99.90
5007;DHT22;2522;50.972;11.046;2022-10-04T19:49:22;12.70;99.90
5007;DHT22;2522;50.972;11.046;2022-10-04T19:51:56;12.70;99.90
5007;DHT22;2522;50.972;11.046;2022-10-04T19:54:31;12.70;99.90
5007;DHT22;2522;50.972;11.046;2022-10-04T19:57:04;12.70;99.90
5007;DHT22;2522;50.972;11.046;2022-10-04T19:59:39;12.70;99.90
5007;DHT22;2522;50.972;11.046;2022-10-04T20:02:07;12.70;99.90
5007;DHT22;2522;50.972;11.046;2022-10-04T20:04:35;12.70;99.90
5007;DHT22;2522;50.972;11.046;2022-10-04T20:07:05;12.60;99.90
5007;DHT22;2522;50.972;11.046;2022-10-04T20:09:50;12.60;99.90
5007;DHT22;2522;50.972;11.046;2022-10-04T20:12:33;12.60;99.90
5007;DHT22;2522;50.972;11.046;2022-10-04T20:15:18;12.60;99.90
5007;DHT22;2522;50.972;11.046;2022-10-04T20:21:09;12.50;99.90
5007;DHT22;2522;50.972;11.046;2022-10-04T20:23:50;12.60;99.90
5007;DHT22;2522;50.972;11.046;2022-10-04T20:26:40;12.60;99.90
5007;DHT22;2522;50.972;11.046;2022-10-04T20:30:03;12.60;99.90
5007;DHT22;2522;50.972;11.046;2022-10-04T20:32:52;12.60;99.90
5007;DHT22;2522;50.972;11.046;2022-10-04T20:38:49;12.60;99.90
5007;DHT22;2522;50.972;11.046;2022-10-04T20:41:42;12.50;99.90
5007;DHT22;2522;50.972;11.046;2022-10-04T20:44:43;12.60;99.90
5007;DHT22;2522;50.972;11.046;2022-10-04T20:47:38;12.50;99.90
5007;DHT22;2522;50.972;11.046;2022-10-04T20:50:13;12.50;99.90
5007;DHT22;2522;50.972;11.046;2022-10-04T20:52:44;12.50;99.90
5007;DHT22;2522;50.972;11.046;2022-10-04T20:55:20;12.50;99.90
5007;DHT22;2522;50.972;11.046;2022-10-04T20:57:48;12.50;99.90
